Time;durP1;ratioP1;P1;durP2;ratioP2;P2;SDS_P1;SDS_P2;PMS_P1;PMS_P2;Temp;Humidity;BMP_temperature;BMP_pressure;BME280_temperature;BME280_humidity;BME280_pressure;Samples;Min_cycle;Max_cycle;Signal;HPM_P1;HPM_P2
2022/07/07 00:01:02;;;;;;;26.88;17.25;;;16.10;99.90;;;;;;5053503;28;20044;-66
2022/07/07 00:03:28;;;;;;;26.30;17.58;;;16.20;99.90;;;;;;5047906;28;20061;-67
2022/07/07 00:05:54;;;;;;;33.22;18.30;;;16.20;99.90;;;;;;5050118;28;20053;-67
2022/07/07 00:08:20;;;;;;;23.63;17.05;;;16.10;99.90;;;;;;5067610;28;20041;-66
2022/07/07 00:10:46;;;;;;;25.52;17.10;;;16.10;99.90;;;;;;5073633;28;20065;-66
2022/07/07 00:13:11;;;;;;;25.85;17.52;;;16.10;99.90;;;;;;5066110;28;20570;-66
2022/07/07 00:15:38;;;;;;;23.05;16.35;;;16.10;99.90;;;;;;5048365;28;20154;-67
2022/07/07 00:18:04;;;;;;;27.80;18.20;;;16.20;99.90;;;;;;5069152;28;20056;-66
2022/07/07 00:20:30;;;;;;;25.15;16.95;;;16.20;99.90;;;;;;5072579;28;20040;-66
2022/07/07 00:22:55;;;;;;;24.95;16.85;;;16.20;99.90;;;;;;5082622;28;20053;-67
2022/07/07 00:25:21;;;;;;;25.75;18.35;;;16.20;99.90;;;;;;5067842;28;20060;-67
2022/07/07 00:27:47;;;;;;;26.25;18.52;;;16.20;99.90;;;;;;5065434;28;20052;-67
2022/07/07 00:30:13;;;;;;;27.13;17.63;;;16.30;99.90;;;;;;5083105;28;20420;-66
2022/07/07 00:32:38;;;;;;;23.95;16.52;;;16.20;99.90;;;;;;5064380;28;20045;-66
2022/07/07 00:35:04;;;;;;;30.23;17.58;;;16.30;99.90;;;;;;5069701;28;20050;-66
2022/07/07 00:37:30;;;;;;;22.08;16.55;;;16.20;99.90;;;;;;5068346;28;20037;-67
2022/07/07 00:39:56;;;;;;;24.58;16.50;;;16.30;99.90;;;;;;5064589;28;20055;-67
2022/07/07 00:42:21;;;;;;;22.85;16.15;;;16.30;99.90;;;;;;5067707;28;20039;-66
2022/07/07 00:44:47;;;;;;;24.10;15.85;;;16.20;99.90;;;;;;5067596;28;20405;-66
2022/07/07 00:47:13;;;;;;;23.33;15.68;;;16.20;99.90;;;;;;5050613;28;20041;-66
2022/07/07 00:49:41;;;;;;;23.10;14.90;;;16.30;99.90;;;;;;5048998;28;20043;-66
2022/07/07 00:52:08;;;;;;;18.80;14.73;;;16.30;99.90;;;;;;5050322;28;20041;-67
2022/07/07 00:54:34;;;;;;;17.55;12.70;;;16.30;99.90;;;;;;5051526;28;20045;-66
2022/07/07 00:57:01;;;;;;;17.55;13.45;;;16.20;99.90;;;;;;5055903;28;20053;-66
2022/07/07 00:59:26;;;;;;;18.60;12.88;;;16.20;99.90;;;;;;5050159;28;20576;-66
2022/07/07 01:01:53;;;;;;;20.02;12.25;;;16.10;99.90;;;;;;5051756;28;20079;-66
2022/07/07 01:04:19;;;;;;;17.48;12.20;;;16.20;99.90;;;;;;5048897;28;20045;-66
2022/07/07 01:06:45;;;;;;;20.63;14.20;;;16.10;99.90;;;;;;5051680;28;20055;-66
2022/07/07 01:09:10;;;;;;;19.35;12.48;;;16.20;99.90;;;;;;5068495;28;20128;-66
2022/07/07 01:11:53;;;;;;;19.02;11.13;;;16.20;99.90;;;;;;5065231;28;20055;-66
2022/07/07 01:14:19;;;;;;;15.77;11.55;;;16.20;99.90;;;;;;5050893;28;20056;-66
2022/07/07 01:16:47;;;;;;;17.25;12.10;;;16.20;99.90;;;;;;5066715;28;20059;-66
2022/07/07 01:19:13;;;;;;;15.18;11.75;;;16.10;99.90;;;;;;5070162;28;20044;-66
2022/07/07 01:22:03;;;;;;;18.05;11.00;;;16.20;99.90;;;;;;5071322;28;20083;-66
2022/07/07 01:24:30;;;;;;;17.13;11.95;;;16.20;99.90;;;;;;5048652;28;20042;-66
2022/07/07 01:27:06;;;;;;;16.92;12.10;;;16.10;99.90;;;;;;5030113;28;20533;-66
2022/07/07 01:29:43;;;;;;;19.58;13.75;;;16.10;99.90;;;;;;5041035;28;20053;-67
2022/07/07 01:32:09;;;;;;;16.58;12.13;;;16.10;99.90;;;;;;5030561;28;20555;-66
2022/07/07 01:34:37;;;;;;;15.55;12.68;;;16.10;99.90;;;;;;5032998;28;20101;-66
2022/07/07 01:37:03;;;;;;;17.55;11.93;;;16.10;99.90;;;;;;5027631;28;20049;-67
2022/07/07 01:39:29;;;;;;;18.65;12.52;;;16.20;99.90;;;;;;5047419;28;20120;-66
2022/07/07 01:41:55;;;;;;;15.73;12.02;;;16.10;99.90;;;;;;5049563;28;20053;-67
2022/07/07 01:44:20;;;;;;;16.88;12.18;;;16.20;99.90;;;;;;5029450;28;20043;-66
2022/07/07 01:46:46;;;;;;;13.55;10.32;;;16.20;99.90;;;;;;5047160;28;20041;-66
2022/07/07 01:49:12;;;;;;;17.17;11.10;;;16.20;99.90;;;;;;5046338;28;20122;-67
2022/07/07 01:51:38;;;;;;;11.02;8.52;;;16.20;99.90;;;;;;5029596;28;20081;-66
2022/07/07 01:54:04;;;;;;;13.15;9.02;;;16.00;99.90;;;;;;5045190;28;20045;-66
2022/07/07 01:56:30;;;;;;;10.95;8.43;;;16.00;99.90;;;;;;5032638;28;20071;-66
2022/07/07 01:58:55;;;;;;;9.95;7.38;;;16.10;99.90;;;;;;5033969;28;20053;-67
2022/07/07 02:01:21;;;;;;;7.38;5.50;;;16.00;99.90;;;;;;5034381;28;20065;-66
2022/07/07 02:03:47;;;;;;;9.45;6.60;;;16.10;99.90;;;;;;5036023;28;20049;-66
2022/07/07 02:06:12;;;;;;;9.85;6.85;;;16.00;99.90;;;;;;5036492;28;20045;-66
2022/07/07 02:08:38;;;;;;;12.82;6.70;;;16.00;99.90;;;;;;5051601;28;20037;-66
2022/07/07 02:11:12;;;;;;;8.43;6.05;;;16.00;99.90;;;;;;5034399;28;20053;-67
2022/07/07 02:13:47;;;;;;;11.60;6.15;;;15.90;99.90;;;;;;5052968;28;20033;-66
2022/07/07 02:16:14;;;;;;;7.05;5.60;;;16.00;99.90;;;;;;5030326;28;20075;-66
2022/07/07 02:18:40;;;;;;;10.77;5.25;;;15.80;99.90;;;;;;5049365;28;20052;-67
2022/07/07 02:21:08;;;;;;;7.03;5.32;;;16.00;99.90;;;;;;5035984;28;20197;-66
2022/07/07 02:23:34;;;;;;;11.68;5.22;;;16.00;99.90;;;;;;5066413;28;20053;-66
2022/07/07 02:26:00;;;;;;;7.80;5.22;;;16.00;99.90;;;;;;5055325;28;20049;-66
2022/07/07 02:28:27;;;;;;;8.57;4.50;;;15.90;99.90;;;;;;5071024;28;20093;-67
2022/07/07 02:30:53;;;;;;;8.20;4.32;;;15.80;99.90;;;;;;5071096;28;20049;-67
2022/07/07 02:33:20;;;;;;;5.43;3.80;;;15.90;99.90;;;;;;5058615;28;20496;-67
2022/07/07 02:35:47;;;;;;;4.85;3.92;;;15.90;99.90;;;;;;5051676;28;20052;-67
2022/07/07 02:38:14;;;;;;;4.65;3.72;;;15.80;99.90;;;;;;5071071;28;20045;-66
2022/07/07 02:40:40;;;;;;;6.80;4.43;;;15.90;99.90;;;;;;5053314;28;20053;-67
2022/07/07 02:43:06;;;;;;;7.65;4.55;;;15.90;99.90;;;;;;5070753;28;20041;-67
2022/07/07 02:45:32;;;;;;;8.75;4.85;;;15.80;99.90;;;;;;5049204;28;20048;-67
2022/07/07 02:47:57;;;;;;;9.13;3.88;;;15.90;99.90;;;;;;5035659;28;20041;-67
2022/07/07 02:50:23;;;;;;;9.25;4.57;;;15.90;99.90;;;;;;5069544;28;20095;-67
2022/07/07 02:52:49;;;;;;;7.63;4.65;;;15.80;99.90;;;;;;5055595;28;20044;-67
2022/07/07 02:55:14;;;;;;;6.30;5.35;;;15.90;99.90;;;;;;5054514;28;20401;-66
2022/07/07 02:57:40;;;;;;;10.75;5.32;;;15.90;99.90;;;;;;5052217;28;20037;-67
2022/07/07 03:00:08;;;;;;;6.00;4.82;;;15.80;99.90;;;;;;5057920;28;20080;-67
2022/07/07 03:02:34;;;;;;;9.52;5.35;;;15.90;99.90;;;;;;5076011;28;20489;-67
2022/07/07 03:05:00;;;;;;;8.55;5.50;;;15.80;99.90;;;;;;5051626;28;20041;-67
2022/07/07 03:07:25;;;;;;;9.63;5.80;;;15.90;99.90;;;;;;5036742;28;20079;-67
2022/07/07 03:09:51;;;;;;;10.00;4.82;;;15.90;99.90;;;;;;5051076;28;20579;-67
2022/07/07 03:12:17;;;;;;;11.63;5.68;;;15.90;99.90;;;;;;5056557;28;20059;-67
2022/07/07 03:14:43;;;;;;;10.52;5.43;;;15.80;99.90;;;;;;5051847;28;20045;-66
2022/07/07 03:17:08;;;;;;;8.70;4.30;;;15.90;99.90;;;;;;5051495;28;20045;-66
2022/07/07 03:19:39;;;;;;;11.85;3.95;;;15.90;99.90;;;;;;5053175;28;20091;-67
2022/07/07 03:22:05;;;;;;;8.95;4.35;;;15.80;99.90;;;;;;5057547;28;20443;-67
2022/07/07 03:24:31;;;;;;;7.38;4.18;;;15.90;99.90;;;;;;5032910;28;20084;-66
2022/07/07 03:26:59;;;;;;;7.18;4.20;;;15.80;99.90;;;;;;5051759;28;20052;-66
2022/07/07 03:29:25;;;;;;;9.55;4.10;;;15.80;99.90;;;;;;5071223;28;20401;-66
2022/07/07 03:31:51;;;;;;;10.45;4.00;;;15.90;99.90;;;;;;5050727;28;20083;-66
2022/07/07 03:34:16;;;;;;;10.60;4.70;;;15.80;99.90;;;;;;5049351;28;20044;-67
2022/07/07 03:36:42;;;;;;;12.07;3.90;;;15.90;99.90;;;;;;5054805;28;20045;-67
2022/07/07 03:39:08;;;;;;;14.82;4.28;;;15.90;99.90;;;;;;5071553;28;20040;-67
2022/07/07 03:41:34;;;;;;;10.65;4.50;;;15.90;99.90;;;;;;5057172;28;20063;-66
2022/07/07 03:43:59;;;;;;;9.30;4.05;;;15.90;99.90;;;;;;5068267;28;20089;-67
2022/07/07 03:46:25;;;;;;;10.48;4.10;;;15.90;99.90;;;;;;5050043;28;20041;-66
2022/07/07 03:48:51;;;;;;;8.00;4.07;;;15.80;99.90;;;;;;5069360;28;20098;-67
2022/07/07 03:51:17;;;;;;;12.50;4.00;;;15.80;99.90;;;;;;5053106;28;20069;-67
2022/07/07 03:53:42;;;;;;;10.90;4.05;;;15.90;99.90;;;;;;5049657;28;20052;-66
2022/07/07 03:56:08;;;;;;;11.55;3.67;;;15.80;99.90;;;;;;5053063;28;20037;-67
2022/07/07 03:58:34;;;;;;;10.75;4.10;;;15.90;99.90;;;;;;5068908;28;20100;-67
2022/07/07 04:01:02;;;;;;;13.52;3.72;;;15.70;99.90;;;;;;5053215;28;20044;-67
2022/07/07 04:03:28;;;;;;;15.82;3.90;;;15.80;99.90;;;;;;5049627;28;20056;-67
2022/07/07 04:05:54;;;;;;;10.38;3.95;;;15.70;99.90;;;;;;5067865;28;20104;-66
2022/07/07 04:08:19;;;;;;;13.73;4.18;;;15.80;99.90;;;;;;5054123;28;20045;-67
2022/07/07 04:10:45;;;;;;;12.50;4.40;;;15.70;99.90;;;;;;5055484;28;20045;-67
2022/07/07 04:13:11;;;;;;;9.32;3.75;;;15.90;99.90;;;;;;5052552;28;20042;-66
2022/07/07 04:15:37;;;;;;;9.32;3.28;;;15.90;99.90;;;;;;5052498;28;20076;-67
2022/07/07 04:18:03;;;;;;;5.70;2.10;;;15.80;99.90;;;;;;5068237;28;20045;-67
2022/07/07 04:20:29;;;;;;;2.85;1.70;;;15.80;99.90;;;;;;5052193;28;20063;-66
2022/07/07 04:22:56;;;;;;;5.55;1.88;;;15.80;99.90;;;;;;5050822;28;20558;-67
2022/07/07 04:25:22;;;;;;;4.32;1.58;;;15.90;99.90;;;;;;5049259;28;20070;-67
2022/07/07 04:27:48;;;;;;;5.03;1.70;;;15.80;99.90;;;;;;5069967;28;20423;-67
2022/07/07 04:30:14;;;;;;;4.72;1.58;;;15.70;99.90;;;;;;5056341;28;20091;-67
2022/07/07 04:32:40;;;;;;;7.35;1.90;;;15.90;99.90;;;;;;5049220;28;20041;-67
2022/07/07 04:35:07;;;;;;;8.93;2.25;;;15.90;99.90;;;;;;5050473;28;20048;-66
2022/07/07 04:37:32;;;;;;;10.65;2.20;;;15.70;99.90;;;;;;5071373;28;20051;-67
2022/07/07 04:39:58;;;;;;;7.90;1.65;;;15.80;99.90;;;;;;5053609;28;20045;-67
2022/07/07 04:42:24;;;;;;;8.50;2.17;;;15.80;99.90;;;;;;5049689;28;20055;-67
2022/07/07 04:44:50;;;;;;;8.55;1.90;;;15.70;99.90;;;;;;5049178;28;20049;-66
2022/07/07 04:47:16;;;;;;;8.70;1.80;;;15.70;99.90;;;;;;5069892;28;20637;-67
2022/07/07 04:49:42;;;;;;;9.45;2.42;;;15.70;99.90;;;;;;5055935;28;20052;-69
2022/07/07 04:52:08;;;;;;;6.65;2.05;;;15.80;99.90;;;;;;5069451;28;20045;-68
2022/07/07 04:54:34;;;;;;;9.15;1.70;;;15.90;99.90;;;;;;5057508;28;20124;-66
2022/07/07 04:56:59;;;;;;;7.47;1.95;;;15.80;99.90;;;;;;5063696;28;20036;-66
2022/07/07 04:59:25;;;;;;;9.27;1.90;;;15.90;99.90;;;;;;5044098;28;20287;-67
2022/07/07 05:01:51;;;;;;;6.28;1.77;;;15.80;99.90;;;;;;5024456;28;20152;-66
2022/07/07 05:04:17;;;;;;;10.70;1.75;;;15.80;99.90;;;;;;5014435;28;20053;-66
2022/07/07 05:06:42;;;;;;;7.63;1.48;;;15.70;99.90;;;;;;5032205;28;20616;-70
2022/07/07 05:09:09;;;;;;;8.88;1.95;;;15.80;99.90;;;;;;5039805;28;20053;-68
2022/07/07 05:11:36;;;;;;;12.02;2.30;;;15.80;99.90;;;;;;5024643;28;21228;-68
2022/07/07 05:14:02;;;;;;;7.63;1.85;;;15.80;99.90;;;;;;5049265;28;21146;-68
2022/07/07 05:16:29;;;;;;;11.40;2.30;;;15.70;99.90;;;;;;5026364;28;20052;-67
2022/07/07 05:18:55;;;;;;;8.10;1.80;;;15.80;99.90;;;;;;5053416;28;20077;-68
2022/07/07 05:21:20;;;;;;;9.05;1.80;;;15.80;99.90;;;;;;5028516;28;20053;-66
2022/07/07 05:23:46;;;;;;;10.30;1.83;;;15.80;99.90;;;;;;5052940;28;20068;-69
2022/07/07 05:26:12;;;;;;;15.93;2.88;;;15.70;99.90;;;;;;5035857;28;20066;-67
2022/07/07 05:28:41;;;;;;;12.48;2.20;;;15.60;99.90;;;;;;5045102;28;20070;-68
2022/07/07 05:31:12;;;;;;;17.37;2.10;;;15.70;99.90;;;;;;5037303;28;20040;-69
2022/07/07 05:33:37;;;;;;;6.95;1.92;;;15.60;99.90;;;;;;5063979;28;20040;-69
2022/07/07 05:36:05;;;;;;;7.78;1.92;;;15.60;99.90;;;;;;5067605;28;20137;-69
2022/07/07 05:38:31;;;;;;;13.00;2.28;;;15.60;99.90;;;;;;5060146;28;20043;-69
2022/07/07 05:40:57;;;;;;;8.77;1.52;;;15.80;99.90;;;;;;5052917;28;20116;-69
2022/07/07 05:43:22;;;;;;;8.85;1.40;;;15.80;99.90;;;;;;5061602;28;20055;-69
2022/07/07 05:45:48;;;;;;;10.68;2.13;;;16.00;99.90;;;;;;5053309;28;20151;-70
2022/07/07 05:48:14;;;;;;;7.43;2.53;;;16.00;99.90;;;;;;5063002;28;20039;-68
2022/07/07 05:50:40;;;;;;;7.70;1.80;;;16.00;99.90;;;;;;5052877;28;20040;-68
2022/07/07 05:53:05;;;;;;;8.27;1.83;;;16.00;99.90;;;;;;5050418;28;20052;-69
2022/07/07 05:55:31;;;;;;;6.45;1.63;;;15.90;99.90;;;;;;5050862;28;20071;-67
2022/07/07 05:57:57;;;;;;;13.10;2.03;;;16.00;99.90;;;;;;5080170;28;20250;-68
2022/07/07 06:00:24;;;;;;;7.72;1.95;;;16.10;99.90;;;;;;5070416;28;20041;-68
2022/07/07 06:02:50;;;;;;;6.82;2.00;;;15.90;99.90;;;;;;5061561;28;20052;-68
2022/07/07 06:05:16;;;;;;;10.73;2.67;;;16.00;99.90;;;;;;5055647;28;20263;-70
2022/07/07 06:07:42;;;;;;;8.90;1.70;;;16.00;99.90;;;;;;5058935;28;20069;-68
2022/07/07 06:10:10;;;;;;;10.50;2.55;;;15.90;99.90;;;;;;5044696;28;20065;-66
2022/07/07 06:12:36;;;;;;;13.10;2.17;;;15.90;99.90;;;;;;5053161;28;20049;-66
2022/07/07 06:15:03;;;;;;;9.65;2.83;;;15.90;99.90;;;;;;5058559;28;20086;-66
2022/07/07 06:17:28;;;;;;;9.45;2.78;;;16.00;99.90;;;;;;5043857;28;20128;-66
2022/07/07 06:19:54;;;;;;;10.30;2.80;;;15.90;99.90;;;;;;5078026;28;20075;-66
2022/07/07 06:22:20;;;;;;;12.95;2.13;;;15.90;99.90;;;;;;5052350;28;20083;-65
2022/07/07 06:24:46;;;;;;;7.82;1.77;;;15.80;99.90;;;;;;5058256;28;20072;-66
2022/07/07 06:27:11;;;;;;;8.93;2.38;;;15.60;99.90;;;;;;5083073;28;20052;-66
2022/07/07 06:29:37;;;;;;;7.90;2.15;;;15.80;99.90;;;;;;5061572;28;20084;-66
2022/07/07 06:32:03;;;;;;;8.30;2.72;;;15.70;99.90;;;;;;5064215;28;20212;-66
2022/07/07 06:34:29;;;;;;;9.43;2.35;;;15.70;99.90;;;;;;5064712;28;20144;-66
2022/07/07 06:36:55;;;;;;;9.43;2.35;;;15.90;99.90;;;;;;5061914;28;20056;-66
2022/07/07 06:39:21;;;;;;;9.88;2.05;;;16.00;99.90;;;;;;5064109;28;20051;-66
2022/07/07 06:41:47;;;;;;;12.57;2.30;;;16.10;99.90;;;;;;5061734;28;20118;-66
2022/07/07 06:44:13;;;;;;;9.20;2.75;;;16.00;99.90;;;;;;5065530;28;20160;-66
2022/07/07 06:46:41;;;;;;;11.77;2.85;;;15.90;99.90;;;;;;5083273;28;20059;-66
2022/07/07 06:49:07;;;;;;;10.23;2.83;;;16.00;99.90;;;;;;5055993;28;20116;-65
2022/07/07 06:51:33;;;;;;;12.45;2.55;;;16.00;99.90;;;;;;5044302;28;20079;-66
2022/07/07 06:53:59;;;;;;;11.85;2.28;;;16.10;99.90;;;;;;5057288;28;20365;-66
2022/07/07 06:56:25;;;;;;;13.18;2.50;;;16.20;99.90;;;;;;5074637;28;20624;-66
2022/07/07 06:58:51;;;;;;;8.25;2.08;;;16.40;99.90;;;;;;5067883;28;20072;-66
2022/07/07 07:01:17;;;;;;;7.10;1.92;;;16.60;99.90;;;;;;5057986;28;20052;-66
2022/07/07 07:03:43;;;;;;;9.85;2.15;;;16.70;99.90;;;;;;5055640;28;20052;-66
2022/07/07 07:06:10;;;;;;;7.90;1.90;;;16.70;99.90;;;;;;5054220;28;20052;-66
2022/07/07 07:08:36;;;;;;;11.50;2.53;;;16.70;99.90;;;;;;5069496;28;20037;-65
2022/07/07 07:11:03;;;;;;;11.18;2.88;;;16.70;99.90;;;;;;5052019;28;20127;-66
2022/07/07 07:13:30;;;;;;;6.95;1.70;;;16.50;99.90;;;;;;5071938;28;20051;-66
2022/07/07 07:15:56;;;;;;;8.68;2.10;;;16.60;99.90;;;;;;5071043;28;20318;-67
2022/07/07 07:18:21;;;;;;;7.10;1.90;;;16.70;99.90;;;;;;5072249;28;20067;-67
2022/07/07 07:20:47;;;;;;;12.63;2.17;;;16.60;99.90;;;;;;5069013;28;20048;-66
2022/07/07 07:23:13;;;;;;;10.63;1.85;;;16.60;99.90;;;;;;5073689;28;20052;-66
2022/07/07 07:25:38;;;;;;;4.35;1.52;;;16.60;99.90;;;;;;5068561;28;20060;-66
2022/07/07 07:28:04;;;;;;;8.65;1.90;;;16.70;99.90;;;;;;5078756;28;20044;-66
2022/07/07 07:30:31;;;;;;;7.70;1.90;;;16.70;99.90;;;;;;5062075;28;20082;-66
2022/07/07 07:32:57;;;;;;;9.00;1.73;;;16.70;99.90;;;;;;5037206;28;20049;-66
2022/07/07 07:35:23;;;;;;;5.45;1.15;;;16.90;99.90;;;;;;5086904;28;20044;-66
2022/07/07 07:37:48;;;;;;;4.93;1.10;;;16.90;99.90;;;;;;5082600;28;20057;-66
2022/07/07 07:40:14;;;;;;;5.70;1.00;;;16.80;99.90;;;;;;5069699;28;20101;-66
2022/07/07 07:42:40;;;;;;;3.40;1.13;;;16.80;99.90;;;;;;5054058;28;20052;-66
2022/07/07 07:45:10;;;;;;;4.32;1.35;;;16.70;99.90;;;;;;5077796;28;20052;-66
2022/07/07 07:47:44;;;;;;;3.75;1.05;;;16.70;99.90;;;;;;5065592;28;20075;-66
2022/07/07 07:50:12;;;;;;;7.72;1.05;;;16.80;99.90;;;;;;5083738;28;20049;-66
2022/07/07 07:52:42;;;;;;;3.38;0.90;;;17.00;99.90;;;;;;5065872;28;20090;-65
2022/07/07 07:55:10;;;;;;;1.95;0.98;;;17.10;99.90;;;;;;5037528;28;20057;-66
2022/07/07 07:57:36;;;;;;;6.63;0.77;;;17.10;99.90;;;;;;5048786;28;20122;-66
2022/07/07 08:00:08;;;;;;;3.55;0.95;;;17.20;99.90;;;;;;5060978;28;20067;-67
2022/07/07 08:02:34;;;;;;;4.97;0.70;;;17.40;99.90;;;;;;5057386;28;20327;-66
2022/07/07 08:05:00;;;;;;;4.35;1.00;;;17.60;99.90;;;;;;5018784;28;20044;-66
2022/07/07 08:07:26;;;;;;;3.17;0.73;;;17.60;99.90;;;;;;5046018;28;20055;-67
2022/07/07 08:09:51;;;;;;;7.40;2.70;;;17.60;99.90;;;;;;5048077;28;20654;-66
2022/07/07 08:12:17;;;;;;;6.30;0.88;;;17.60;99.90;;;;;;5035253;28;20123;-65
2022/07/07 08:14:44;;;;;;;4.07;0.85;;;17.70;99.90;;;;;;5037689;28;20207;-66
2022/07/07 08:17:10;;;;;;;7.05;1.20;;;17.70;99.90;;;;;;5035480;28;20064;-66
2022/07/07 08:19:35;;;;;;;5.53;1.40;;;17.70;99.90;;;;;;5058070;28;20039;-66
2022/07/07 08:22:01;;;;;;;3.47;0.85;;;17.60;99.90;;;;;;5028812;28;20073;-67
2022/07/07 08:24:27;;;;;;;5.47;1.20;;;17.40;99.90;;;;;;5030451;28;20455;-66
2022/07/07 08:26:53;;;;;;;3.28;0.77;;;17.20;99.90;;;;;;5055809;28;20269;-66
2022/07/07 08:29:19;;;;;;;6.78;1.08;;;16.90;99.90;;;;;;5033665;28;20474;-66
2022/07/07 08:31:45;;;;;;;3.55;0.95;;;16.70;99.90;;;;;;5037505;28;20087;-66
2022/07/07 08:34:11;;;;;;;3.80;1.30;;;16.70;99.90;;;;;;5040321;28;20048;-66
2022/07/07 08:36:37;;;;;;;3.70;0.90;;;16.70;99.90;;;;;;5028662;28;20160;-67
2022/07/07 08:39:03;;;;;;;4.15;0.90;;;16.60;99.90;;;;;;5046326;28;20050;-66
2022/07/07 08:41:29;;;;;;;5.18;1.08;;;16.70;99.90;;;;;;5023013;28;20102;-67
2022/07/07 08:43:55;;;;;;;4.88;1.35;;;16.90;99.90;;;;;;5042171;28;20052;-66
2022/07/07 08:46:21;;;;;;;5.78;1.42;;;17.00;99.90;;;;;;5034609;28;20048;-66
2022/07/07 08:48:47;;;;;;;5.60;1.20;;;17.20;99.90;;;;;;5055912;28;20076;-67
2022/07/07 08:51:15;;;;;;;4.30;0.98;;;17.40;99.90;;;;;;5030053;28;20467;-66
2022/07/07 08:53:44;;;;;;;5.43;1.30;;;17.50;99.90;;;;;;5026263;28;20045;-67
2022/07/07 08:56:11;;;;;;;5.40;1.10;;;17.60;99.90;;;;;;5046935;28;20055;-66
2022/07/07 08:58:37;;;;;;;4.10;1.13;;;17.50;99.90;;;;;;5062779;28;20286;-66
2022/07/07 09:01:04;;;;;;;6.55;1.55;;;17.70;99.90;;;;;;5058840;28;20040;-68
2022/07/07 09:03:30;;;;;;;5.45;1.13;;;17.80;99.90;;;;;;5058701;28;20037;-68
2022/07/07 09:05:57;;;;;;;4.90;1.20;;;18.00;99.90;;;;;;5033292;28;20284;-68
2022/07/07 09:08:25;;;;;;;4.13;0.90;;;17.90;99.90;;;;;;5015819;28;20045;-69
2022/07/07 09:10:51;;;;;;;2.03;1.10;;;17.90;99.90;;;;;;5031338;28;20614;-69
2022/07/07 09:13:29;;;;;;;5.95;1.02;;;17.80;99.90;;;;;;5012197;28;20136;-67
2022/07/07 09:15:57;;;;;;;4.40;1.10;;;17.80;99.90;;;;;;5027868;28;20041;-67
2022/07/07 09:18:38;;;;;;;5.63;1.30;;;17.80;99.90;;;;;;5035664;28;20500;-69
2022/07/07 09:21:06;;;;;;;8.80;1.58;;;17.90;99.90;;;;;;5033089;28;20421;-67
2022/07/07 09:23:32;;;;;;;5.35;1.55;;;17.80;99.90;;;;;;5039643;28;20053;-68
2022/07/07 09:26:00;;;;;;;5.07;1.20;;;18.00;99.90;;;;;;5030318;28;20045;-68
2022/07/07 09:28:27;;;;;;;6.63;1.70;;;18.10;99.90;;;;;;5026349;28;20616;-68
2022/07/07 09:30:54;;;;;;;4.68;1.15;;;18.00;99.90;;;;;;5030755;28;20043;-68
2022/07/07 09:33:25;;;;;;;9.57;1.45;;;18.20;99.90;;;;;;5016559;28;20048;-67
2022/07/07 09:38:39;;;;;;;7.45;1.63;;;18.30;99.90;;;;;;5037913;28;20072;-68
2022/07/07 09:41:12;;;;;;;9.90;2.47;;;18.30;99.90;;;;;;5011644;28;20034;-67
2022/07/07 09:43:52;;;;;;;8.13;1.88;;;18.30;99.90;;;;;;5019963;28;20038;-69
2022/07/07 09:46:22;;;;;;;5.68;1.85;;;18.10;99.90;;;;;;5010403;28;20053;-69
2022/07/07 09:48:49;;;;;;;4.57;1.48;;;17.90;99.90;;;;;;5028267;28;20060;-69
2022/07/07 09:51:19;;;;;;;8.75;1.98;;;17.70;99.90;;;;;;5031376;28;20120;-69
2022/07/07 09:54:14;;;;;;;6.75;1.60;;;17.70;99.90;;;;;;5034236;28;20087;-68
2022/07/07 09:56:42;;;;;;;4.82;1.40;;;17.60;99.90;;;;;;5031944;28;20045;-68
2022/07/07 09:59:10;;;;;;;5.03;1.45;;;17.50;99.90;;;;;;5038532;28;20099;-68
2022/07/07 10:01:38;;;;;;;4.53;1.40;;;17.80;99.90;;;;;;5031785;28;20539;-68
2022/07/07 10:04:09;;;;;;;2.58;1.30;;;18.00;99.90;;;;;;5057419;28;20037;-68
2022/07/07 10:06:38;;;;;;;4.40;1.52;;;18.20;99.90;;;;;;5045850;28;20573;-68
2022/07/07 10:09:10;;;;;;;3.85;1.40;;;18.20;99.90;;;;;;5054560;28;20063;-67
2022/07/07 10:11:40;;;;;;;4.97;1.92;;;18.30;99.90;;;;;;5029062;28;20057;-67
2022/07/07 10:14:14;;;;;;;4.68;2.10;;;18.30;99.90;;;;;;5050232;28;20041;-67
2022/07/07 10:16:41;;;;;;;6.20;2.20;;;18.40;99.90;;;;;;5033421;28;20059;-68
2022/07/07 10:19:10;;;;;;;7.35;1.60;;;18.60;99.90;;;;;;5048282;28;20132;-68
2022/07/07 10:21:37;;;;;;;11.40;2.20;;;18.60;99.90;;;;;;5030412;28;20045;-68
2022/07/07 10:24:05;;;;;;;6.75;1.75;;;18.60;99.90;;;;;;5057133;28;20053;-68
2022/07/07 10:26:51;;;;;;;5.88;1.98;;;18.20;99.90;;;;;;5083288;28;20044;-68
2022/07/07 10:29:35;;;;;;;6.72;1.63;;;17.80;99.90;;;;;;5046575;28;20595;-68
2022/07/07 10:32:00;;;;;;;7.53;2.08;;;17.60;99.90;;;;;;5057895;28;20052;-68
2022/07/07 10:34:28;;;;;;;7.20;1.95;;;17.50;99.90;;;;;;5065212;28;20067;-68
2022/07/07 10:37:04;;;;;;;7.68;1.67;;;17.50;99.90;;;;;;5056487;28;20058;-68
2022/07/07 10:39:34;;;;;;;6.68;1.70;;;17.60;99.90;;;;;;5073623;28;20040;-68
2022/07/07 10:42:14;;;;;;;6.50;1.92;;;17.70;99.90;;;;;;5082348;28;20037;-68
2022/07/07 10:44:51;;;;;;;6.78;2.00;;;17.80;99.90;;;;;;5052544;28;20048;-67
2022/07/07 10:47:17;;;;;;;6.05;1.70;;;17.80;99.90;;;;;;5060043;28;20641;-67
2022/07/07 10:49:51;;;;;;;4.97;1.30;;;17.80;99.90;;;;;;5062866;28;20053;-67
2022/07/07 10:52:22;;;;;;;5.70;1.33;;;18.00;99.90;;;;;;5042108;28;20602;-67
2022/07/07 10:54:48;;;;;;;5.97;1.83;;;17.90;99.90;;;;;;5043788;28;20114;-67
2022/07/07 10:57:19;;;;;;;6.10;1.38;;;17.90;99.90;;;;;;5061048;28;20107;-67
2022/07/07 11:00:09;;;;;;;9.50;2.40;;;17.80;99.90;;;;;;5063986;28;20056;-67
2022/07/07 11:02:51;;;;;;;7.47;2.03;;;17.80;99.90;;;;;;5061021;28;20415;-68
2022/07/07 11:05:16;;;;;;;7.38;1.92;;;17.70;99.90;;;;;;5055291;28;20087;-68
2022/07/07 11:07:55;;;;;;;10.60;1.80;;;17.80;99.90;;;;;;5063592;28;20048;-67
2022/07/07 11:10:21;;;;;;;6.88;2.25;;;17.80;99.90;;;;;;5057300;28;20041;-67
2022/07/07 11:12:48;;;;;;;9.77;2.05;;;17.50;99.90;;;;;;5072369;28;20139;-68
2022/07/07 11:15:33;;;;;;;9.05;2.17;;;17.50;99.90;;;;;;5059211;28;20059;-68
2022/07/07 11:18:00;;;;;;;14.07;3.08;;;17.40;99.90;;;;;;5079121;28;20055;-68
2022/07/07 11:20:30;;;;;;;13.07;2.47;;;17.40;99.90;;;;;;5055810;28;20048;-68
2022/07/07 11:23:05;;;;;;;19.48;4.95;;;17.50;99.90;;;;;;5084895;28;20049;-67
2022/07/07 11:25:32;;;;;;;16.65;2.72;;;17.60;99.90;;;;;;5056172;28;20608;-68
2022/07/07 11:27:58;;;;;;;14.30;2.45;;;17.60;99.90;;;;;;5064537;28;20073;-67
2022/07/07 11:30:25;;;;;;;12.90;2.60;;;17.80;99.90;;;;;;5059659;28;20053;-68
2022/07/07 11:32:55;;;;;;;12.23;2.53;;;17.70;99.90;;;;;;5065148;28;20111;-68
2022/07/07 11:35:21;;;;;;;15.10;2.97;;;17.40;99.90;;;;;;5058808;28;20072;-68
2022/07/07 11:37:47;;;;;;;14.20;3.05;;;17.50;99.90;;;;;;5061600;28;20051;-68
2022/07/07 11:40:12;;;;;;;11.95;2.30;;;17.70;99.90;;;;;;5059693;28;20045;-68
2022/07/07 11:42:40;;;;;;;11.32;2.88;;;17.70;99.90;;;;;;5062915;28;20108;-68
2022/07/07 11:45:22;;;;;;;12.13;2.67;;;17.90;99.90;;;;;;5061645;28;20076;-68
2022/07/07 11:47:49;;;;;;;8.75;2.13;;;18.00;99.90;;;;;;5059068;28;20411;-69
2022/07/07 11:50:16;;;;;;;13.88;2.35;;;17.80;99.90;;;;;;5039991;28;20482;-69
2022/07/07 11:52:52;;;;;;;12.38;2.88;;;17.80;99.90;;;;;;5081239;28;20149;-68
2022/07/07 11:55:19;;;;;;;12.55;2.83;;;17.60;99.90;;;;;;5038328;28;20061;-68
2022/07/07 11:57:57;;;;;;;14.07;2.50;;;17.60;99.90;;;;;;5051688;28;20106;-68
2022/07/07 12:00:34;;;;;;;18.35;3.05;;;17.60;99.90;;;;;;5058823;28;20037;-68
2022/07/07 12:03:04;;;;;;;14.13;2.45;;;17.70;99.90;;;;;;5073405;28;20040;-68
2022/07/07 12:05:31;;;;;;;;;;;17.70;99.90;;;;;;5062648;28;20416;-68
2022/07/07 12:08:02;;;;;;;16.08;2.72;;;17.80;99.90;;;;;;5075506;28;19920;-68
2022/07/07 12:10:31;;;;;;;13.85;2.95;;;17.90;99.90;;;;;;5063619;28;20041;-68
2022/07/07 12:13:04;;;;;;;9.77;2.50;;;17.90;99.90;;;;;;5072736;28;20192;-68
2022/07/07 12:15:34;;;;;;;11.85;2.53;;;18.00;99.90;;;;;;5057495;28;20574;-68
2022/07/07 12:18:01;;;;;;;15.20;2.20;;;18.20;99.90;;;;;;5062872;28;20143;-68
2022/07/07 12:20:27;;;;;;;11.30;2.60;;;18.30;99.90;;;;;;5060388;28;20540;-68
2022/07/07 12:22:56;;;;;;;12.65;2.58;;;18.40;99.90;;;;;;5069301;28;20126;-68
2022/07/07 12:25:27;;;;;;;10.65;1.90;;;18.40;99.90;;;;;;5063044;28;20047;-68
2022/07/07 12:28:02;;;;;;;8.80;2.00;;;18.60;99.90;;;;;;5059496;28;20052;-68
2022/07/07 12:30:30;;;;;;;8.25;2.15;;;18.70;99.90;;;;;;5064541;28;20059;-69
2022/07/07 12:32:56;;;;;;;8.25;2.13;;;18.70;99.90;;;;;;5059964;28;20040;-68
2022/07/07 12:35:29;;;;;;;11.07;2.00;;;18.80;99.90;;;;;;5063151;28;20083;-68
2022/07/07 12:37:55;;;;;;;9.50;1.60;;;18.70;99.90;;;;;;5056848;28;20079;-68
2022/07/07 12:40:22;;;;;;;12.07;2.15;;;18.70;99.90;;;;;;5054384;28;20060;-69
2022/07/07 12:42:49;;;;;;;9.13;2.05;;;18.80;99.90;;;;;;5080971;28;20063;-68
2022/07/07 12:45:17;;;;;;;9.80;2.15;;;19.00;99.90;;;;;;5061125;28;20041;-68